Time;durP1;ratioP1;P1;durP2;ratioP2;P2;SDS_P1;SDS_P2;PMS_P1;PMS_P2;Temp;Humidity;BMP_temperature;BMP_pressure;BME280_temperature;BME280_humidity;BME280_pressure;Samples;Min_cycle;Max_cycle;Signal;HPM_P1;HPM_P2
2023/03/12 00:00:30;;;;;;;3.10;1.80;;;-1.90;99.90;;;;;;4956906;28;20491;-78
2023/03/12 00:02:56;;;;;;;3.95;2.00;;;-1.90;99.90;;;;;;4980790;28;20066;-79
2023/03/12 00:05:24;;;;;;;5.35;1.90;;;-1.90;99.90;;;;;;4978676;28;20062;-79
2023/03/12 00:07:53;;;;;;;4.68;2.28;;;-1.90;99.90;;;;;;4961059;28;20118;-79
2023/03/12 00:10:19;;;;;;;5.57;1.77;;;-1.90;99.90;;;;;;4973501;28;20541;-77
2023/03/12 00:12:45;;;;;;;4.68;2.15;;;-1.90;99.90;;;;;;4981126;28;20027;-78
2023/03/12 00:15:11;;;;;;;3.78;2.28;;;-1.90;99.90;;;;;;4970295;28;20027;-76
2023/03/12 00:17:37;;;;;;;3.70;2.25;;;-1.90;99.90;;;;;;4949262;28;20544;-76
2023/03/12 00:20:05;;;;;;;4.38;2.35;;;-1.90;99.90;;;;;;4984863;28;20415;-78
2023/03/12 00:22:32;;;;;;;4.10;1.92;;;-1.90;99.90;;;;;;4982960;28;20030;-76
2023/03/12 00:24:58;;;;;;;4.43;2.00;;;-1.90;99.90;;;;;;4962614;28;20026;-78
2023/03/12 00:27:25;;;;;;;3.50;2.10;;;-1.90;99.90;;;;;;4949900;28;20042;-79
2023/03/12 00:29:51;;;;;;;7.03;2.13;;;-1.90;99.90;;;;;;4960002;28;20030;-76
2023/03/12 00:32:17;;;;;;;3.72;2.00;;;-1.90;99.90;;;;;;4952138;28;20149;-79
2023/03/12 00:34:43;;;;;;;7.18;2.50;;;-1.80;99.90;;;;;;4972714;28;20019;-79
2023/03/12 00:37:09;;;;;;;4.53;1.92;;;-1.80;99.90;;;;;;4949363;28;20031;-79
2023/03/12 00:39:35;;;;;;;3.55;2.20;;;-1.80;99.90;;;;;;4959906;28;20395;-79
2023/03/12 00:42:01;;;;;;;4.07;1.90;;;-1.80;99.90;;;;;;4979160;28;20377;-77
2023/03/12 00:44:26;;;;;;;3.85;2.17;;;-1.80;99.90;;;;;;4977958;28;20061;-79
2023/03/12 00:46:52;;;;;;;4.38;2.33;;;-1.80;99.90;;;;;;4979260;28;20033;-78
2023/03/12 00:49:18;;;;;;;2.83;2.47;;;-1.80;99.90;;;;;;4981147;28;20034;-77
2023/03/12 00:51:44;;;;;;;6.07;2.78;;;-1.70;99.90;;;;;;4972493;28;20019;-78
2023/03/12 00:54:10;;;;;;;4.93;2.80;;;-1.80;99.90;;;;;;4959816;28;20019;-78
2023/03/12 00:56:36;;;;;;;5.43;2.40;;;-1.70;99.90;;;;;;4970615;28;20539;-79
2023/03/12 00:59:01;;;;;;;7.75;3.10;;;-1.70;99.90;;;;;;4964027;28;20023;-79
2023/03/12 01:01:27;;;;;;;7.35;3.70;;;-1.70;99.90;;;;;;4971372;28;20593;-79
2023/03/12 01:03:54;;;;;;;7.63;3.83;;;-1.70;99.90;;;;;;4973326;28;20047;-78
2023/03/12 01:06:20;;;;;;;8.35;4.00;;;-1.60;99.90;;;;;;4978166;28;20103;-77
2023/03/12 01:08:46;;;;;;;7.05;4.05;;;-1.70;99.90;;;;;;4970116;28;20041;-79
2023/03/12 01:11:13;;;;;;;6.95;3.65;;;-1.70;99.90;;;;;;4971218;28;20034;-79
2023/03/12 01:13:39;;;;;;;5.80;3.75;;;-1.80;99.90;;;;;;4974338;28;20353;-77
2023/03/12 01:16:05;;;;;;;11.68;3.60;;;-1.80;99.90;;;;;;4966003;28;20030;-78
2023/03/12 01:18:31;;;;;;;8.65;3.33;;;-1.80;99.90;;;;;;4950059;28;20027;-79
2023/03/12 01:20:58;;;;;;;5.70;3.30;;;-1.90;99.90;;;;;;4982510;28;20031;-78
2023/03/12 01:23:24;;;;;;;5.82;2.72;;;-1.90;99.90;;;;;;4956107;28;20085;-79
2023/03/12 01:25:51;;;;;;;6.22;3.30;;;-1.90;99.90;;;;;;4943190;28;20543;-79
2023/03/12 01:28:17;;;;;;;6.35;3.17;;;-2.00;99.90;;;;;;4963940;28;20535;-76
2023/03/12 01:30:43;;;;;;;6.55;2.92;;;-2.00;99.90;;;;;;4977339;28;20035;-76
2023/03/12 01:33:09;;;;;;;4.97;2.95;;;-2.00;99.90;;;;;;4969663;28;20041;-77
2023/03/12 01:35:38;;;;;;;6.55;3.67;;;-2.00;99.90;;;;;;4947394;28;20525;-77
2023/03/12 01:38:05;;;;;;;6.47;2.88;;;-2.10;99.90;;;;;;4948559;28;20023;-78
2023/03/12 01:40:34;;;;;;;6.93;3.17;;;-2.00;99.90;;;;;;4970661;28;20117;-78
2023/03/12 01:43:25;;;;;;;6.20;2.97;;;-1.90;99.90;;;;;;4964928;28;20026;-77
2023/03/12 01:46:03;;;;;;;5.75;3.20;;;-1.90;99.90;;;;;;4956640;28;20518;-78
2023/03/12 01:48:57;;;;;;;6.90;3.30;;;-1.80;99.90;;;;;;4968584;28;20599;-78
2023/03/12 01:51:32;;;;;;;6.40;2.97;;;-1.90;99.90;;;;;;4968168;28;20033;-78
2023/03/12 01:54:01;;;;;;;5.37;2.60;;;-2.00;99.90;;;;;;4966712;28;20491;-76
2023/03/12 01:56:32;;;;;;;4.88;2.85;;;-2.00;99.90;;;;;;4956017;28;20132;-76
2023/03/12 01:59:05;;;;;;;5.15;3.10;;;-2.10;99.90;;;;;;4970001;28;20077;-76
2023/03/12 02:01:31;;;;;;;3.53;2.80;;;-2.20;99.90;;;;;;4955672;28;20564;-77
2023/03/12 02:03:59;;;;;;;4.93;3.30;;;-2.20;99.90;;;;;;4963276;28;20029;-76
2023/03/12 02:06:33;;;;;;;3.78;2.78;;;-2.30;99.90;;;;;;4958996;28;20031;-76
2023/03/12 02:09:01;;;;;;;4.55;2.72;;;-2.40;99.90;;;;;;4978329;28;20033;-77
2023/03/12 02:11:27;;;;;;;4.15;2.40;;;-2.40;99.90;;;;;;4976756;28;20034;-76
2023/03/12 02:13:53;;;;;;;3.47;2.65;;;-2.40;99.90;;;;;;4950757;28;20037;-78
2023/03/12 02:16:20;;;;;;;3.38;2.25;;;-2.40;99.90;;;;;;4944125;28;20035;-78
2023/03/12 02:18:49;;;;;;;6.20;2.70;;;-2.40;99.90;;;;;;4939207;28;20240;-77
2023/03/12 02:21:28;;;;;;;8.77;2.72;;;-2.50;99.90;;;;;;4959779;28;20026;-77
2023/03/12 02:24:07;;;;;;;8.48;2.45;;;-2.50;99.90;;;;;;4947132;28;20503;-77
2023/03/12 02:26:36;;;;;;;5.15;2.70;;;-2.50;99.90;;;;;;4955374;28;20026;-78
2023/03/12 02:29:03;;;;;;;3.42;2.40;;;-2.50;99.90;;;;;;4969345;28;20031;-77
2023/03/12 02:31:35;;;;;;;4.30;2.83;;;-2.50;99.90;;;;;;4964067;28;20501;-77
2023/03/12 02:34:02;;;;;;;9.13;3.00;;;-2.50;99.90;;;;;;4962793;28;20031;-77
2023/03/12 02:36:28;;;;;;;3.85;2.42;;;-2.50;99.90;;;;;;4958765;28;20039;-78
2023/03/12 02:38:54;;;;;;;3.97;2.67;;;-2.60;99.90;;;;;;4954261;28;20031;-77
2023/03/12 02:41:33;;;;;;;5.30;2.97;;;-2.60;99.90;;;;;;4951685;28;20034;-78
2023/03/12 02:44:10;;;;;;;4.32;2.47;;;-2.60;99.90;;;;;;4952554;28;20034;-77
2023/03/12 02:46:40;;;;;;;6.03;3.00;;;-2.60;99.90;;;;;;4940433;28;20049;-76
2023/03/12 02:49:07;;;;;;;4.35;2.88;;;-2.70;99.90;;;;;;4957204;28;20090;-76
2023/03/12 02:51:33;;;;;;;4.05;3.03;;;-2.70;99.90;;;;;;4964275;28;20165;-78
2023/03/12 02:53:59;;;;;;;10.13;4.63;;;-2.70;99.90;;;;;;4966353;28;20030;-77
2023/03/12 02:56:27;;;;;;;13.27;4.95;;;-2.70;99.90;;;;;;4940631;28;20399;-77
2023/03/12 02:58:53;;;;;;;11.00;4.18;;;-2.70;99.90;;;;;;4958835;28;20480;-76
2023/03/12 03:01:20;;;;;;;8.93;4.55;;;-2.80;99.90;;;;;;4953553;28;20035;-76
2023/03/12 03:03:46;;;;;;;9.43;4.50;;;-2.80;99.90;;;;;;4977043;28;20034;-77
2023/03/12 03:06:13;;;;;;;9.00;4.35;;;-2.70;99.90;;;;;;4949377;28;20031;-77
2023/03/12 03:08:38;;;;;;;7.72;4.05;;;-2.70;99.90;;;;;;4971887;28;20424;-76
2023/03/12 03:11:05;;;;;;;8.40;4.45;;;-2.70;99.90;;;;;;4967272;28;20126;-78
2023/03/12 03:13:32;;;;;;;8.27;3.80;;;-2.60;99.90;;;;;;4964993;28;20026;-78
2023/03/12 03:16:00;;;;;;;7.18;4.65;;;-2.50;99.90;;;;;;4956214;28;20062;-78
2023/03/12 03:18:28;;;;;;;6.88;3.90;;;-2.50;99.90;;;;;;4946349;28;20038;-76
2023/03/12 03:21:00;;;;;;;5.68;2.95;;;-2.50;99.90;;;;;;4963861;28;20052;-76
2023/03/12 03:23:27;;;;;;;7.30;3.58;;;-2.50;99.90;;;;;;4958425;28;20122;-78
2023/03/12 03:25:53;;;;;;;6.47;3.30;;;-2.50;99.90;;;;;;4961584;28;20058;-78
2023/03/12 03:28:20;;;;;;;5.88;3.60;;;-2.50;99.90;;;;;;4950658;28;20114;-77
2023/03/12 03:30:46;;;;;;;12.05;4.70;;;-2.50;99.90;;;;;;4966449;28;20031;-76
2023/03/12 03:33:12;;;;;;;10.95;5.25;;;-2.50;99.90;;;;;;4965646;28;20029;-78
2023/03/12 03:35:38;;;;;;;8.60;5.10;;;-2.40;99.90;;;;;;4964107;28;20046;-76
2023/03/12 03:38:04;;;;;;;8.48;4.93;;;-2.40;99.90;;;;;;4974030;28;20479;-78
2023/03/12 03:40:30;;;;;;;8.00;4.10;;;-2.30;99.90;;;;;;4971928;28;20668;-77
2023/03/12 03:42:56;;;;;;;7.40;4.05;;;-2.30;99.90;;;;;;4973242;28;20046;-77
2023/03/12 03:45:21;;;;;;;7.88;4.10;;;-2.20;99.90;;;;;;4962026;28;20089;-76
2023/03/12 03:47:54;;;;;;;7.38;3.40;;;-2.20;99.90;;;;;;4975089;28;20046;-77
2023/03/12 03:50:20;;;;;;;7.20;3.35;;;-2.10;99.90;;;;;;4968759;28;20038;-77
2023/03/12 03:52:46;;;;;;;7.70;3.25;;;-2.10;99.90;;;;;;4936703;28;20050;-76
2023/03/12 03:55:12;;;;;;;5.38;3.17;;;-2.10;99.90;;;;;;4950824;28;20026;-76
2023/03/12 03:57:39;;;;;;;5.47;3.33;;;-2.10;99.90;;;;;;4965036;28;20105;-77
2023/03/12 04:00:08;;;;;;;6.78;3.30;;;-2.10;99.90;;;;;;4957015;28;20077;-77
2023/03/12 04:02:39;;;;;;;5.45;3.25;;;-2.20;99.90;;;;;;4972802;28;20583;-77
2023/03/12 04:05:07;;;;;;;11.05;3.47;;;-2.20;99.90;;;;;;4957637;28;20118;-77
2023/03/12 04:07:33;;;;;;;5.43;3.17;;;-2.10;99.90;;;;;;4933730;28;20031;-77
2023/03/12 04:09:59;;;;;;;5.93;3.25;;;-2.10;99.90;;;;;;4942916;28;20507;-77
2023/03/12 04:12:26;;;;;;;7.72;3.15;;;-2.10;99.90;;;;;;4945790;28;20041;-78
2023/03/12 04:14:53;;;;;;;4.97;3.15;;;-2.10;99.90;;;;;;4964431;28;20031;-76
2023/03/12 04:17:19;;;;;;;6.55;3.05;;;-2.10;99.90;;;;;;4946306;28;20046;-76
2023/03/12 04:19:46;;;;;;;7.47;3.30;;;-2.10;99.90;;;;;;4958878;28;20038;-75
2023/03/12 04:22:13;;;;;;;5.70;3.20;;;-2.10;99.90;;;;;;4966136;28;20376;-76
2023/03/12 04:24:39;;;;;;;5.60;2.90;;;-2.10;99.90;;;;;;4964285;28;20093;-76
2023/03/12 04:27:05;;;;;;;5.30;3.30;;;-2.10;99.90;;;;;;4946265;28;20058;-75
2023/03/12 04:29:32;;;;;;;5.32;3.15;;;-2.00;99.90;;;;;;4969568;28;20121;-78
2023/03/12 04:31:58;;;;;;;4.82;3.42;;;-2.00;99.90;;;;;;4943075;28;20061;-77
2023/03/12 04:34:24;;;;;;;6.05;3.03;;;-2.10;99.90;;;;;;4960975;28;20057;-77
2023/03/12 04:36:52;;;;;;;5.00;2.90;;;-2.10;99.90;;;;;;4961695;28;20118;-77
2023/03/12 04:39:19;;;;;;;9.27;3.00;;;-2.10;99.90;;;;;;4968705;28;20086;-77
2023/03/12 04:41:47;;;;;;;7.05;3.17;;;-2.10;99.90;;;;;;4954193;28;20121;-76
2023/03/12 04:44:15;;;;;;;4.80;3.10;;;-2.00;99.90;;;;;;4962952;28;20022;-76
2023/03/12 04:46:41;;;;;;;5.28;3.35;;;-2.00;99.90;;;;;;4958189;28;20031;-76
2023/03/12 04:49:11;;;;;;;4.60;2.83;;;-1.90;99.90;;;;;;4974327;28;20029;-76
2023/03/12 04:51:38;;;;;;;6.43;2.92;;;-1.90;99.90;;;;;;4934836;28;20023;-77
2023/03/12 04:54:04;;;;;;;4.05;2.97;;;-1.90;99.90;;;;;;4956417;28;20027;-78
2023/03/12 04:56:31;;;;;;;7.15;2.83;;;-1.90;99.90;;;;;;4960576;28;20022;-77
2023/03/12 04:58:57;;;;;;;6.43;2.83;;;-2.00;99.90;;;;;;4948797;28;20109;-77
2023/03/12 05:01:27;;;;;;;5.00;2.83;;;-2.00;99.90;;;;;;4949452;28;21207;-77
2023/03/12 05:03:53;;;;;;;8.05;3.42;;;-2.00;99.90;;;;;;4961885;28;20033;-78
2023/03/12 05:06:20;;;;;;;6.95;3.50;;;-1.90;99.90;;;;;;4960610;28;20129;-78
2023/03/12 05:08:47;;;;;;;6.88;2.92;;;-1.90;99.90;;;;;;4973879;28;20546;-78
2023/03/12 05:11:13;;;;;;;7.97;3.28;;;-1.80;99.90;;;;;;4970420;28;20037;-78
2023/03/12 05:13:40;;;;;;;4.18;2.88;;;-1.90;99.90;;;;;;4977678;28;20492;-77
2023/03/12 05:16:06;;;;;;;4.75;3.30;;;-2.00;99.90;;;;;;4942652;28;20031;-78
2023/03/12 05:18:32;;;;;;;5.45;3.03;;;-2.00;99.90;;;;;;4974166;28;20063;-78
2023/03/12 05:21:07;;;;;;;4.80;3.65;;;-2.00;99.90;;;;;;4964883;28;20406;-78
2023/03/12 05:23:34;;;;;;;6.15;3.15;;;-2.10;99.90;;;;;;4960527;28;20073;-77
2023/03/12 05:26:00;;;;;;;6.28;3.28;;;-2.00;99.90;;;;;;4957783;28;20041;-77
2023/03/12 05:28:28;;;;;;;6.57;3.10;;;-1.90;99.90;;;;;;4955607;28;20030;-77
2023/03/12 05:30:57;;;;;;;4.85;2.75;;;-1.90;99.90;;;;;;4962633;28;20037;-77
2023/03/12 05:33:24;;;;;;;6.43;2.88;;;-1.90;99.90;;;;;;4958383;28;20031;-76
2023/03/12 05:35:50;;;;;;;4.97;2.85;;;-1.90;99.90;;;;;;4966097;28;20039;-77
2023/03/12 05:38:16;;;;;;;6.63;3.20;;;-1.90;99.90;;;;;;4956753;28;20034;-76
2023/03/12 05:40:42;;;;;;;8.25;4.30;;;-1.90;99.90;;;;;;4968684;28;20105;-77
2023/03/12 05:43:07;;;;;;;9.50;4.65;;;-1.90;99.90;;;;;;4975037;28;20054;-76
2023/03/12 05:45:34;;;;;;;7.97;5.10;;;-1.90;99.90;;;;;;4964445;28;20038;-77
2023/03/12 05:47:59;;;;;;;7.93;4.20;;;-1.90;99.90;;;;;;4976493;28;20485;-76
2023/03/12 05:50:27;;;;;;;8.30;4.03;;;-1.90;99.90;;;;;;4942198;28;20045;-77
2023/03/12 05:52:53;;;;;;;7.75;4.20;;;-1.90;99.90;;;;;;4958379;28;20039;-76
2023/03/12 05:55:19;;;;;;;8.85;3.80;;;-1.80;99.90;;;;;;4944013;28;20057;-76
2023/03/12 05:57:45;;;;;;;7.22;3.67;;;-1.80;99.90;;;;;;4968501;28;20031;-78
2023/03/12 06:00:13;;;;;;;8.52;3.75;;;-1.80;99.90;;;;;;4938475;28;20046;-78
2023/03/12 06:02:49;;;;;;;6.93;3.92;;;-1.80;99.90;;;;;;4957955;28;20034;-78
2023/03/12 06:05:15;;;;;;;6.65;3.63;;;-1.80;99.90;;;;;;4948205;28;20030;-79
2023/03/12 06:07:41;;;;;;;8.07;4.40;;;-1.80;99.90;;;;;;4955366;28;20070;-78
2023/03/12 06:10:08;;;;;;;10.07;5.20;;;-1.80;99.90;;;;;;4951893;28;20038;-77
2023/03/12 06:12:33;;;;;;;8.95;5.22;;;-1.70;99.90;;;;;;4974813;28;20038;-78
2023/03/12 06:14:59;;;;;;;6.28;3.80;;;-1.80;99.90;;;;;;4960519;28;20126;-77
2023/03/12 06:17:28;;;;;;;5.63;3.78;;;-1.70;99.90;;;;;;4942998;28;20034;-77
2023/03/12 06:19:54;;;;;;;8.55;3.83;;;-1.70;99.90;;;;;;4967591;28;20026;-76
2023/03/12 06:22:20;;;;;;;12.90;7.43;;;-1.70;99.90;;;;;;4950367;28;20035;-77
2023/03/12 06:24:48;;;;;;;12.95;7.50;;;-1.60;99.90;;;;;;4940841;28;20037;-77
2023/03/12 06:27:16;;;;;;;10.60;5.55;;;-1.60;99.90;;;;;;4955969;28;20026;-78
2023/03/12 06:29:42;;;;;;;18.70;10.52;;;-1.60;99.90;;;;;;4940560;28;20368;-79
2023/03/12 06:32:08;;;;;;;13.10;7.93;;;-1.50;99.90;;;;;;4970208;28;20045;-79
2023/03/12 06:34:34;;;;;;;21.45;10.35;;;-1.40;99.90;;;;;;4982583;28;20414;-77
2023/03/12 06:37:00;;;;;;;13.20;7.95;;;-1.30;99.90;;;;;;4962547;28;20023;-79
2023/03/12 06:39:26;;;;;;;12.07;6.95;;;-1.30;99.90;;;;;;4949280;28;20479;-77
2023/03/12 06:41:52;;;;;;;14.23;8.35;;;-1.30;99.90;;;;;;4983230;28;20058;-77
2023/03/12 06:44:18;;;;;;;20.75;11.23;;;-1.20;99.90;;;;;;4968628;28;20093;-77
2023/03/12 06:46:44;;;;;;;11.27;6.93;;;-1.10;99.90;;;;;;4944173;28;20035;-77
2023/03/12 06:49:10;;;;;;;9.45;4.90;;;-1.10;99.90;;;;;;4978987;28;20026;-77
2023/03/12 06:51:36;;;;;;;4.18;3.38;;;-1.00;99.90;;;;;;4962619;28;20077;-76
2023/03/12 06:54:02;;;;;;;5.70;3.70;;;-0.80;99.90;;;;;;4969746;28;20534;-77
2023/03/12 06:56:29;;;;;;;6.47;3.58;;;-0.70;99.90;;;;;;4959841;28;20037;-77
2023/03/12 06:58:56;;;;;;;6.18;3.95;;;-0.60;99.90;;;;;;4967393;28;20035;-77
2023/03/12 07:01:22;;;;;;;7.75;3.70;;;-0.50;99.90;;;;;;4963876;28;20431;-77
2023/03/12 07:03:48;;;;;;;5.93;3.45;;;-0.60;99.90;;;;;;4956744;28;20113;-77
2023/03/12 07:06:16;;;;;;;5.00;3.15;;;-0.70;99.90;;;;;;4956361;28;20138;-77
2023/03/12 07:08:42;;;;;;;8.52;3.15;;;-0.70;99.90;;;;;;4978700;28;20558;-77
2023/03/12 07:11:08;;;;;;;6.28;3.72;;;-0.70;99.90;;;;;;4976461;28;20479;-76
2023/03/12 07:13:35;;;;;;;6.50;3.38;;;-0.60;99.90;;;;;;4970342;28;20033;-77
2023/03/12 07:16:01;;;;;;;8.15;3.80;;;-0.50;99.90;;;;;;4973996;28;20511;-77
2023/03/12 07:18:26;;;;;;;6.60;3.90;;;-0.30;99.90;;;;;;4980162;28;20116;-78
2023/03/12 07:20:52;;;;;;;7.18;4.60;;;-0.20;99.90;;;;;;4981906;28;20127;-77
2023/03/12 07:23:19;;;;;;;8.07;4.38;;;-0.10;99.90;;;;;;4973610;28;20041;-77
2023/03/12 07:25:46;;;;;;;8.88;4.32;;;0.00;99.90;;;;;;4958941;28;20046;-76
2023/03/12 07:28:13;;;;;;;10.00;3.78;;;0.00;99.90;;;;;;4965574;28;20027;-80
2023/03/12 07:30:40;;;;;;;7.13;3.80;;;0.10;99.90;;;;;;4990344;28;20062;-78
2023/03/12 07:33:08;;;;;;;6.60;3.80;;;0.20;99.90;;;;;;4939389;29;20032;-77
2023/03/12 07:35:35;;;;;;;7.72;4.35;;;0.20;99.90;;;;;;4979656;28;20033;-76
2023/03/12 07:38:01;;;;;;;7.00;3.53;;;0.30;99.90;;;;;;4955337;28;20484;-76
2023/03/12 07:40:27;;;;;;;7.10;3.72;;;0.30;99.90;;;;;;4963044;28;20034;-75
2023/03/12 07:42:53;;;;;;;7.40;4.70;;;0.30;99.90;;;;;;4967774;28;20030;-76
2023/03/12 07:45:20;;;;;;;8.30;4.25;;;0.40;99.90;;;;;;4965110;28;20086;-76
2023/03/12 07:47:46;;;;;;;11.73;8.70;;;0.50;99.90;;;;;;4962873;28;20118;-77
2023/03/12 07:50:13;;;;;;;8.13;3.90;;;0.60;99.90;;;;;;4979589;28;20038;-77
2023/03/12 07:52:38;;;;;;;8.05;5.18;;;0.80;99.90;;;;;;4985751;28;20041;-76
2023/03/12 07:55:05;;;;;;;5.28;3.60;;;0.90;99.90;;;;;;4953542;28;20031;-76
2023/03/12 07:57:31;;;;;;;9.32;3.88;;;1.20;99.90;;;;;;4939049;28;20035;-76
2023/03/12 07:59:57;;;;;;;7.18;3.78;;;1.20;99.90;;;;;;4971248;28;20241;-76
2023/03/12 08:02:23;;;;;;;8.25;3.70;;;1.30;99.90;;;;;;4959092;28;20039;-76
2023/03/12 08:04:48;;;;;;;5.97;3.65;;;1.20;99.90;;;;;;4976692;28;20047;-77
2023/03/12 08:07:14;;;;;;;6.85;3.85;;;1.40;99.90;;;;;;4957942;28;20090;-76
2023/03/12 08:09:41;;;;;;;7.60;3.92;;;1.40;99.90;;;;;;4968521;28;20034;-76
2023/03/12 08:12:07;;;;;;;5.53;4.10;;;1.50;99.90;;;;;;4977171;28;20632;-76
2023/03/12 08:14:34;;;;;;;9.95;4.20;;;1.50;99.90;;;;;;4962598;28;20035;-77
2023/03/12 08:17:00;;;;;;;7.32;3.90;;;1.50;99.90;;;;;;4987794;28;20407;-77
2023/03/12 08:19:27;;;;;;;6.97;4.13;;;1.60;99.90;;;;;;4992394;28;20030;-77
2023/03/12 08:21:53;;;;;;;6.15;4.38;;;1.60;99.90;;;;;;4967418;28;20034;-76
2023/03/12 08:24:20;;;;;;;17.30;8.50;;;1.70;99.90;;;;;;4977367;28;20089;-76
2023/03/12 08:26:46;;;;;;;9.30;4.50;;;1.80;99.90;;;;;;4945246;28;20057;-77
2023/03/12 08:29:12;;;;;;;7.25;4.18;;;1.90;99.90;;;;;;4980369;28;20029;-77
2023/03/12 08:31:38;;;;;;;4.20;3.05;;;2.10;99.90;;;;;;4964949;28;20458;-77
2023/03/12 08:34:04;;;;;;;6.90;2.97;;;2.30;99.90;;;;;;4947751;28;20031;-78
2023/03/12 08:36:29;;;;;;;6.00;2.45;;;2.40;99.90;;;;;;4957420;28;20484;-78
2023/03/12 08:38:55;;;;;;;5.57;3.28;;;2.50;99.90;;;;;;4978065;28;20050;-77
2023/03/12 08:41:21;;;;;;;5.72;2.65;;;2.60;99.90;;;;;;4975248;28;20583;-77
2023/03/12 08:43:47;;;;;;;9.13;2.55;;;2.70;99.90;;;;;;4959545;28;20038;-77
2023/03/12 08:46:13;;;;;;;5.15;2.55;;;2.70;99.90;;;;;;4976876;28;20069;-77
2023/03/12 08:48:39;;;;;;;5.35;2.42;;;2.80;99.90;;;;;;4959156;28;20081;-77
2023/03/12 08:51:06;;;;;;;3.80;2.13;;;2.90;99.90;;;;;;4952097;28;20077;-77
2023/03/12 08:53:34;;;;;;;3.58;2.65;;;2.90;99.90;;;;;;4941875;28;20054;-78
2023/03/12 08:56:01;;;;;;;4.03;2.88;;;3.10;99.90;;;;;;4976146;28;20074;-77
2023/03/12 08:58:28;;;;;;;5.32;2.45;;;3.20;99.90;;;;;;4962128;28;20578;-78
2023/03/12 09:00:54;;;;;;;4.97;2.53;;;3.40;99.90;;;;;;4960020;28;20038;-77
2023/03/12 09:03:21;;;;;;;3.72;2.00;;;3.60;99.90;;;;;;4970366;28;20451;-77
2023/03/12 09:05:48;;;;;;;4.47;2.38;;;3.80;99.90;;;;;;4963985;28;20046;-77
2023/03/12 09:08:14;;;;;;;4.32;2.10;;;3.90;99.90;;;;;;4961233;28;20035;-77
2023/03/12 09:10:45;;;;;;;5.32;2.30;;;4.00;99.90;;;;;;4977285;28;20117;-77
2023/03/12 09:13:11;;;;;;;3.20;2.10;;;4.10;99.90;;;;;;4970888;28;20372;-77
2023/03/12 09:15:37;;;;;;;4.47;2.40;;;4.10;99.90;;;;;;4964956;28;20030;-77
2023/03/12 09:18:03;;;;;;;4.68;2.47;;;4.20;99.90;;;;;;4979563;28;20437;-77
2023/03/12 09:20:29;;;;;;;2.90;1.63;;;4.20;99.90;;;;;;4950201;28;20035;-76
2023/03/12 09:22:54;;;;;;;3.28;2.22;;;4.10;99.90;;;;;;4980757;28;20034;-79
2023/03/12 09:25:22;;;;;;;4.63;2.30;;;4.20;99.90;;;;;;4983173;28;20039;-77
2023/03/12 09:27:48;;;;;;;4.80;1.92;;;4.20;99.90;;;;;;4973802;28;20022;-79
2023/03/12 09:30:17;;;;;;;3.80;2.03;;;4.30;99.90;;;;;;4966591;28;20034;-78
2023/03/12 09:32:46;;;;;;;3.45;2.10;;;4.40;99.90;;;;;;4986589;28;20496;-77
2023/03/12 09:35:14;;;;;;;6.10;2.30;;;4.40;99.90;;;;;;4979154;28;20038;-77
2023/03/12 09:37:40;;;;;;;3.58;2.00;;;4.40;99.90;;;;;;4981465;28;20125;-78
2023/03/12 09:40:08;;;;;;;4.22;2.30;;;4.40;99.90;;;;;;4944747;28;20499;-76
2023/03/12 09:42:45;;;;;;;4.35;1.98;;;4.40;99.90;;;;;;4970958;28;20106;-79
2023/03/12 09:45:21;;;;;;;3.15;2.20;;;4.40;99.90;;;;;;4981180;28;20026;-78
2023/03/12 09:47:57;;;;;;;3.55;1.98;;;4.40;99.90;;;;;;4963756;28;20495;-79
2023/03/12 09:50:34;;;;;;;5.15;2.28;;;4.50;99.90;;;;;;4968785;28;20509;-79
2023/03/12 09:53:08;;;;;;;7.22;2.40;;;4.60;99.90;;;;;;4961212;28;20034;-77
2023/03/12 09:55:39;;;;;;;5.72;1.95;;;4.60;99.90;;;;;;4975019;28;20036;-77
2023/03/12 09:58:13;;;;;;;2.85;2.00;;;4.60;99.90;;;;;;4977687;28;20050;-77
2023/03/12 10:00:39;;;;;;;5.28;2.10;;;4.70;99.90;;;;;;4967441;28;20044;-78
2023/03/12 10:03:08;;;;;;;6.10;1.83;;;4.80;99.90;;;;;;4963789;28;20097;-75
2023/03/12 10:05:45;;;;;;;6.95;2.22;;;4.80;99.90;;;;;;4965273;28;20038;-79
2023/03/12 10:08:45;;;;;;;4.30;1.67;;;4.80;99.90;;;;;;4980138;28;20036;-80
2023/03/12 10:11:38;;;;;;;5.03;1.85;;;4.90;99.90;;;;;;4963757;28;20062;-79
2023/03/12 10:14:35;;;;;;;3.20;1.80;;;4.90;99.90;;;;;;4983880;28;20026;-78
2023/03/12 10:17:36;;;;;;;3.83;1.85;;;5.00;99.90;;;;;;4957405;28;20031;-79
2023/03/12 10:20:31;;;;;;;3.80;1.90;;;5.10;99.90;;;;;;4976565;28;20129;-78
2023/03/12 10:23:10;;;;;;;4.88;1.65;;;5.30;99.90;;;;;;4962383;28;20039;-79
2023/03/12 10:26:12;;;;;;;4.38;2.00;;;5.30;99.90;;;;;;4977637;28;20046;-79
2023/03/12 10:28:49;;;;;;;6.28;1.95;;;5.40;99.90;;;;;;4960979;28;20058;-78
2023/03/12 10:31:25;;;;;;;4.90;1.80;;;5.40;99.90;;;;;;4982235;28;20030;-80
2023/03/12 10:33:59;;;;;;;5.38;1.75;;;5.50;99.90;;;;;;4963694;28;20031;-80
2023/03/12 10:36:36;;;;;;;6.72;2.33;;;5.50;99.90;;;;;;4958650;28;20130;-78
2023/03/12 10:39:08;;;;;;;6.38;2.10;;;5.50;99.90;;;;;;4984718;28;20121;-77
2023/03/12 10:41:35;;;;;;;7.88;2.10;;;5.50;99.90;;;;;;4969191;28;20074;-77
2023/03/12 10:44:06;;;;;;;3.78;1.67;;;5.60;99.90;;;;;;4962855;28;20480;-78
2023/03/12 10:46:35;;;;;;;3.35;1.55;;;5.70;99.90;;;;;;4954033;28;20023;-79
2023/03/12 10:49:20;;;;;;;2.65;1.30;;;5.80;99.90;;;;;;4965133;28;20394;-80
2023/03/12 10:52:19;;;;;;;4.20;1.38;;;5.90;99.90;;;;;;4982170;28;20372;-78
2023/03/12 10:54:50;;;;;;;3.83;1.90;;;6.00;99.90;;;;;;4964950;28;20031;-77
2023/03/12 10:57:16;;;;;;;3.42;1.52;;;6.10;99.90;;;;;;4978610;28;20023;-80
2023/03/12 10:59:46;;;;;;;4.07;1.60;;;6.00;99.90;;;;;;4983038;28;20516;-79
2023/03/12 11:02:45;;;;;;;3.70;1.58;;;5.90;99.90;;;;;;4984607;28;20045;-79
2023/03/12 11:05:35;;;;;;;11.50;1.83;;;5.80;99.90;;;;;;4982292;28;20463;-78
2023/03/12 11:08:02;;;;;;;2.92;1.58;;;5.80;99.90;;;;;;4949303;28;20039;-78
2023/03/12 11:10:31;;;;;;;6.15;1.42;;;5.80;99.90;;;;;;4952666;28;20512;-78
2023/03/12 11:13:19;;;;;;;2.47;1.25;;;5.80;99.90;;;;;;4976375;28;20027;-76
2023/03/12 11:15:46;;;;;;;2.78;1.45;;;5.80;99.90;;;;;;4975841;28;20514;-77
2023/03/12 11:18:21;;;;;;;4.53;1.40;;;5.80;99.90;;;;;;4965105;28;20031;-78
2023/03/12 11:20:51;;;;;;;3.72;1.10;;;5.80;99.90;;;;;;4960600;28;20053;-77
2023/03/12 11:23:24;;;;;;;3.13;1.42;;;5.70;99.90;;;;;;4980748;28;20030;-75
2023/03/12 11:25:52;;;;;;;4.07;1.40;;;5.70;99.90;;;;;;4975025;28;20380;-75
2023/03/12 11:28:24;;;;;;;4.35;1.45;;;5.70;99.90;;;;;;4961800;28;20087;-79
2023/03/12 11:30:52;;;;;;;4.40;1.15;;;5.70;99.90;;;;;;4978342;28;20097;-78
2023/03/12 11:33:18;;;;;;;4.10;1.20;;;5.70;99.90;;;;;;4971824;28;20037;-77
2023/03/12 11:36:21;;;;;;;2.35;1.30;;;5.70;99.90;;;;;;4940434;28;20126;-78
2023/03/12 11:39:19;;;;;;;2.63;1.35;;;5.60;99.90;;;;;;4979742;28;20594;-78
2023/03/12 11:42:12;;;;;;;1.95;1.38;;;5.70;99.90;;;;;;4979480;28;20058;-79
2023/03/12 11:44:43;;;;;;;3.78;1.33;;;5.80;99.90;;;;;;4962904;28;20038;-77
2023/03/12 11:47:24;;;;;;;3.38;1.80;;;5.80;99.90;;;;;;4982020;28;20029;-78
2023/03/12 11:50:12;;;;;;;3.63;1.77;;;5.80;99.90;;;;;;4968236;28;20034;-80
2023/03/12 11:53:05;;;;;;;3.97;1.75;;;5.70;99.90;;;;;;4967131;28;20048;-79
2023/03/12 11:55:57;;;;;;;3.88;1.67;;;5.70;99.90;;;;;;4975561;28;20144;-79
2023/03/12 11:58:37;;;;;;;4.05;1.50;;;5.70;99.90;;;;;;4980388;28;20081;-80
2023/03/12 12:01:03;;;;;;;2.88;1.63;;;5.70;99.90;;;;;;4965788;28;20030;-80
2023/03/12 12:03:48;;;;;;;2.70;1.40;;;5.70;99.90;;;;;;4980151;28;20598;-79
2023/03/12 12:06:51;;;;;;;4.32;1.30;;;5.60;99.90;;;;;;4982261;28;20031;-79
2023/03/12 12:09:27;;;;;;;2.55;1.55;;;5.60;99.90;;;;;;4985431;28;20042;-80
2023/03/12 12:12:05;;;;;;;2.97;1.67;;;5.60;99.90;;;;;;4983245;28;20456;-76
2023/03/12 12:14:49;;;;;;;6.68;1.80;;;5.60;99.90;;;;;;4971137;28;20039;-79
2023/03/12 12:17:15;;;;;;;4.00;1.95;;;5.60;99.90;;;;;;4980272;28;20037;-80
2023/03/12 12:19:49;;;;;;;5.57;1.98;;;5.50;99.90;;;;;;4966847;28;20027;-77
2023/03/12 12:22:37;;;;;;;4.90;1.70;;;5.50;99.90;;;;;;4985367;28;20234;-80
2023/03/12 12:25:24;;;;;;;3.05;1.50;;;5.50;99.90;;;;;;4979654;28;20422;-77
2023/03/12 12:28:05;;;;;;;2.65;1.85;;;5.50;99.90;;;;;;4982129;28;20035;-79
2023/03/12 12:30:34;;;;;;;3.05;1.45;;;5.50;99.90;;;;;;4984348;28;20035;-80
2023/03/12 12:33:37;;;;;;;3.20;1.60;;;5.50;99.90;;;;;;4968271;28;20376;-79
2023/03/12 12:36:04;;;;;;;4.47;1.52;;;5.50;99.90;;;;;;4977501;28;20436;-79
2023/03/12 12:38:36;;;;;;;4.47;1.42;;;5.40;99.90;;;;;;4959099;28;20043;-79
2023/03/12 12:41:10;;;;;;;5.53;1.88;;;5.40;99.90;;;;;;4977172;28;20089;-80
2023/03/12 12:43:42;;;;;;;2.70;1.60;;;5.30;99.90;;;;;;4967687;28;20042;-78
2023/03/12 12:46:13;;;;;;;4.72;1.95;;;5.30;99.90;;;;;;4980638;28;20097;-80
2023/03/12 12:48:48;;;;;;;5.05;2.22;;;5.40;99.90;;;;;;4981685;28;20030;-79
2023/03/12 12:51:18;;;;;;;4.47;2.13;;;5.40;99.90;;;;;;4984584;28;20026;-77
2023/03/12 12:54:21;;;;;;;3.47;1.80;;;5.50;99.90;;;;;;4970491;28;20038;-78
2023/03/12 12:56:51;;;;;;;2.45;1.90;;;5.50;99.90;;;;;;4968231;28;20462;-77
2023/03/12 12:59:33;;;;;;;4.97;2.20;;;5.50;99.90;;;;;;4971303;28;20047;-77
2023/03/12 13:02:01;;;;;;;4.05;1.77;;;5.40;99.90;;;;;;4981034;28;20062;-77
2023/03/12 13:04:34;;;;;;;7.35;2.40;;;5.40;99.90;;;;;;4984078;28;20039;-77